createdAt,value
2023-09-06T00:00:38.725Z,104.33
2023-09-06T00:01:11.353Z,111.33
2023-09-06T00:01:44.010Z,113.00
2023-09-06T00:02:16.584Z,110.67
2023-09-06T00:02:49.146Z,108.00
2023-09-06T00:03:21.953Z,105.67
2023-09-06T00:03:57.292Z,103.67
2023-09-06T00:04:30.047Z,103.00
2023-09-06T00:05:02.780Z,102.33
2023-09-06T00:05:35.370Z,102.00
2023-09-06T00:06:08.007Z,101.00
2023-09-06T00:06:40.596Z,101.00
2023-09-06T00:07:13.124Z,102.00
2023-09-06T00:07:48.574Z,105.67
2023-09-06T00:08:21.059Z,112.00
2023-09-06T00:08:53.554Z,118.67
2023-09-06T00:09:26.119Z,122.67
2023-09-06T00:09:58.684Z,121.00
2023-09-06T00:10:31.213Z,117.00
2023-09-06T00:11:05.431Z,116.00
2023-09-06T00:11:37.981Z,116.67
2023-09-06T00:12:10.601Z,118.67
2023-09-06T00:12:43.959Z,124.67
2023-09-06T00:13:18.138Z,129.00
2023-09-06T00:13:50.651Z,129.00
2023-09-06T00:14:23.192Z,125.33
2023-09-06T00:14:56.299Z,122.67
2023-09-06T00:15:28.866Z,121.33
2023-09-06T00:16:02.620Z,120.67
2023-09-06T00:16:35.177Z,120.00
2023-09-06T00:17:07.696Z,122.00
2023-09-06T00:17:42.408Z,126.67
2023-09-06T00:18:14.980Z,128.00
2023-09-06T00:18:47.632Z,129.33
2023-09-06T00:19:20.162Z,128.00
2023-09-06T00:19:53.846Z,127.67
2023-09-06T00:20:26.375Z,127.00
2023-09-06T00:20:59.133Z,126.00
2023-09-06T00:21:31.648Z,127.00
2023-09-06T00:22:04.283Z,127.67
2023-09-06T00:22:36.812Z,127.00
2023-09-06T00:23:10.716Z,127.00
2023-09-06T00:23:43.453Z,127.00
2023-09-06T00:24:20.545Z,126.33
2023-09-06T00:24:53.237Z,126.00
2023-09-06T00:25:27.790Z,126.00
2023-09-06T00:26:00.286Z,126.00
2023-09-06T00:26:32.776Z,126.00
2023-09-06T00:27:06.167Z,126.00
2023-09-06T00:27:38.722Z,126.67
2023-09-06T00:28:11.572Z,128.67
2023-09-06T00:28:44.060Z,131.67
2023-09-06T00:29:16.546Z,131.67
2023-09-06T00:29:49.068Z,131.00
2023-09-06T00:30:21.665Z,131.00
2023-09-06T00:30:58.730Z,134.00
2023-09-06T00:31:32.887Z,151.00
2023-09-06T00:32:05.509Z,148.67
2023-09-06T00:32:38.057Z,145.33
2023-09-06T00:33:10.647Z,143.00
2023-09-06T00:33:43.729Z,142.00
2023-09-06T00:34:16.608Z,143.00
2023-09-06T00:34:49.876Z,142.33
2023-09-06T00:35:25.436Z,141.33
2023-09-06T00:35:59.341Z,140.33
2023-09-06T00:36:34.062Z,138.67
2023-09-06T00:37:08.529Z,137.67
2023-09-06T00:37:46.762Z,136.67
2023-09-06T00:38:19.442Z,136.00
2023-09-06T00:38:51.991Z,134.00
2023-09-06T00:39:25.114Z,132.33
2023-09-06T00:39:57.665Z,132.00
2023-09-06T00:40:31.332Z,130.33
2023-09-06T00:41:04.064Z,122.33
2023-09-06T00:41:41.393Z,115.00
2023-09-06T00:42:13.961Z,111.67
2023-09-06T00:42:54.760Z,112.33
2023-09-06T00:43:27.298Z,114.00
2023-09-06T00:43:59.808Z,115.33
2023-09-06T00:44:32.509Z,116.67
2023-09-06T00:45:05.305Z,117.00
2023-09-06T00:45:45.587Z,116.00
2023-09-06T00:46:20.844Z,115.00
2023-09-06T00:46:53.466Z,115.67
2023-09-06T00:47:26.748Z,115.00
2023-09-06T00:48:00.260Z,113.67
2023-09-06T00:48:33.400Z,113.67
2023-09-06T00:49:07.604Z,114.00
2023-09-06T00:49:40.219Z,114.33
2023-09-06T00:50:15.561Z,114.33
2023-09-06T00:50:54.414Z,115.00
2023-09-06T00:51:27.898Z,113.67
2023-09-06T00:52:00.518Z,111.00
2023-09-06T00:52:33.636Z,109.33
2023-09-06T00:53:08.398Z,108.33
2023-09-06T00:53:40.930Z,108.33
2023-09-06T00:54:13.498Z,106.33
2023-09-06T00:54:46.128Z,106.00
2023-09-06T00:55:19.963Z,104.67
2023-09-06T00:55:53.288Z,103.67
2023-09-06T00:56:25.837Z,103.00
2023-09-06T00:56:58.398Z,103.33
2023-09-06T00:57:31.480Z,104.00
2023-09-06T00:58:05.617Z,104.33
2023-09-06T00:58:39.404Z,104.67
2023-09-06T00:59:14.013Z,104.00
2023-09-06T00:59:50.071Z,104.00
2023-09-06T01:00:26.056Z,102.33
2023-09-06T01:00:59.350Z,100.00
2023-09-06T01:01:35.367Z,97.67
2023-09-06T01:02:08.165Z,95.00
2023-09-06T01:02:40.840Z,93.00
2023-09-06T01:03:14.419Z,93.00
2023-09-06T01:03:47.103Z,92.67
2023-09-06T01:04:19.727Z,92.00
2023-09-06T01:04:52.293Z,91.33
2023-09-06T01:05:27.703Z,90.33
2023-09-06T01:06:05.596Z,89.67
2023-09-06T01:06:41.650Z,89.00
2023-09-06T01:07:15.007Z,89.00
2023-09-06T01:07:54.501Z,90.00
2023-09-06T01:08:38.774Z,90.00
2023-09-06T01:09:11.595Z,90.00
2023-09-06T01:09:45.155Z,90.67
2023-09-06T01:10:17.736Z,91.00
2023-09-06T01:10:51.769Z,91.00
2023-09-06T01:11:26.522Z,92.00
2023-09-06T01:12:00.273Z,97.00
2023-09-06T01:12:35.672Z,101.33
2023-09-06T01:13:08.345Z,102.00
2023-09-06T01:13:40.871Z,101.33
2023-09-06T01:14:13.567Z,101.00
2023-09-06T01:14:46.088Z,101.00
2023-09-06T01:15:18.667Z,100.33
2023-09-06T01:15:52.960Z,100.00
2023-09-06T01:16:33.877Z,100.00
2023-09-06T01:17:08.710Z,99.67
2023-09-06T01:17:44.448Z,99.00
2023-09-06T01:18:18.023Z,99.00
2023-09-06T01:18:50.740Z,99.33
2023-09-06T01:19:30.052Z,100.00
2023-09-06T01:20:30.250Z,101.00
2023-09-06T01:21:09.362Z,104.00
2023-09-06T01:22:00.602Z,104.00
2023-09-06T01:22:39.614Z,103.00
2023-09-06T01:23:38.386Z,104.00
2023-09-06T01:24:12.077Z,105.00
2023-09-06T01:24:45.518Z,104.00
2023-09-06T01:25:18.463Z,104.00
2023-09-06T01:25:52.054Z,102.00
2023-09-06T01:26:25.308Z,99.00
2023-09-06T01:26:58.722Z,97.33
2023-09-06T01:27:31.240Z,94.33
2023-09-06T01:28:04.481Z,90.00
2023-09-06T01:28:37.070Z,86.00
2023-09-06T01:29:09.974Z,83.33
2023-09-06T01:29:42.717Z,82.00
2023-09-06T01:30:15.653Z,81.33
2023-09-06T01:30:48.601Z,81.33
2023-09-06T01:31:21.277Z,82.00
2023-09-06T01:31:53.984Z,83.00
2023-09-06T01:32:28.533Z,83.67
2023-09-06T01:33:01.107Z,84.33
2023-09-06T01:33:33.688Z,85.00
2023-09-06T01:34:06.225Z,85.00
2023-09-06T01:34:38.834Z,85.00
2023-09-06T01:35:11.877Z,85.00
2023-09-06T01:35:44.397Z,86.33
2023-09-06T01:36:16.941Z,87.67
2023-09-06T01:36:49.526Z,89.00
2023-09-06T01:37:25.035Z,89.00
2023-09-06T01:37:58.117Z,90.00
2023-09-06T01:38:34.100Z,91.00
2023-09-06T01:39:07.707Z,91.00
2023-09-06T01:39:40.221Z,91.00
2023-09-06T01:40:17.037Z,89.67
2023-09-06T01:40:49.619Z,87.00
2023-09-06T01:41:22.164Z,83.67
2023-09-06T01:41:54.651Z,82.67
2023-09-06T01:42:28.093Z,82.00
2023-09-06T01:43:00.642Z,82.00
2023-09-06T01:43:33.224Z,83.00
2023-09-06T01:44:06.040Z,83.00
2023-09-06T01:44:38.659Z,81.00
2023-09-06T01:45:11.507Z,78.67
2023-09-06T01:45:46.064Z,77.33
2023-09-06T01:46:18.732Z,77.00
2023-09-06T01:46:51.409Z,78.00
2023-09-06T01:47:26.455Z,78.00
2023-09-06T01:47:59.022Z,78.00
2023-09-06T01:48:33.705Z,78.00
2023-09-06T01:49:38.705Z,78.33
2023-09-06T01:50:11.230Z,78.00
2023-09-06T01:50:43.885Z,79.00
2023-09-06T01:51:17.444Z,80.33
2023-09-06T01:51:49.996Z,81.00
2023-09-06T01:52:22.523Z,81.67
2023-09-06T01:52:56.314Z,84.00
2023-09-06T01:53:30.353Z,85.00
2023-09-06T01:54:05.518Z,85.00
2023-09-06T01:54:38.011Z,85.00
2023-09-06T01:55:10.613Z,85.00
2023-09-06T01:55:44.275Z,85.00
2023-09-06T01:56:16.767Z,85.00
2023-09-06T01:56:49.250Z,85.00
2023-09-06T01:57:21.752Z,85.00
2023-09-06T01:57:54.345Z,85.00
2023-09-06T01:58:27.235Z,85.00
2023-09-06T01:59:00.018Z,86.33
2023-09-06T01:59:32.943Z,88.33
2023-09-06T02:00:20.466Z,89.00
2023-09-06T02:00:54.477Z,89.00
2023-09-06T02:01:27.200Z,89.00
2023-09-06T02:01:59.820Z,88.00
2023-09-06T02:02:32.430Z,88.00
2023-09-06T02:03:07.768Z,88.00
2023-09-06T02:03:40.504Z,87.33
2023-09-06T02:04:13.197Z,86.67
2023-09-06T02:04:45.764Z,85.33
2023-09-06T02:05:18.250Z,82.67
2023-09-06T02:05:51.351Z,79.67
2023-09-06T02:06:23.891Z,78.00
2023-09-06T02:06:56.439Z,75.00
2023-09-06T02:07:29.118Z,72.00
2023-09-06T02:08:02.021Z,71.00
2023-09-06T02:08:36.590Z,69.67
2023-09-06T02:09:09.410Z,68.67
2023-09-06T02:09:42.056Z,65.33
2023-09-06T02:10:14.835Z,61.67
2023-09-06T02:10:47.353Z,61.33
2023-09-06T02:11:19.834Z,63.67
2023-09-06T02:11:53.347Z,65.00
2023-09-06T02:12:27.220Z,65.00
2023-09-06T02:13:00.225Z,63.33
2023-09-06T02:13:32.780Z,60.33
2023-09-06T02:14:05.311Z,58.00
2023-09-06T02:14:37.823Z,56.00
2023-09-06T02:15:15.180Z,55.67
2023-09-06T02:15:47.836Z,55.00
2023-09-06T02:16:21.055Z,54.67
2023-09-06T02:16:53.598Z,55.00
2023-09-06T02:17:26.429Z,55.67
2023-09-06T02:17:59.070Z,54.67
2023-09-06T02:18:31.936Z,53.33
2023-09-06T02:19:04.553Z,53.00
2023-09-06T02:19:37.056Z,54.33
2023-09-06T02:20:22.712Z,55.00
2023-09-06T02:20:59.720Z,56.67
2023-09-06T02:21:32.340Z,58.33
2023-09-06T02:22:05.455Z,60.33
2023-09-06T02:22:38.253Z,62.33
2023-09-06T02:23:10.777Z,64.33
2023-09-06T02:23:43.270Z,65.00
2023-09-06T02:24:15.795Z,65.00
2023-09-06T02:24:48.311Z,65.00
2023-09-06T02:25:24.587Z,65.00
2023-09-06T02:25:57.602Z,65.67
2023-09-06T02:26:31.610Z,66.00
2023-09-06T02:27:04.303Z,66.00
2023-09-06T02:27:38.050Z,66.00
2023-09-06T02:28:10.596Z,66.00
2023-09-06T02:28:43.137Z,65.00
2023-09-06T02:29:16.997Z,65.00
2023-09-06T02:29:52.750Z,65.00
2023-09-06T02:30:25.330Z,65.67
2023-09-06T02:30:57.832Z,66.00
2023-09-06T02:31:30.471Z,66.67
2023-09-06T02:32:03.120Z,67.00
2023-09-06T02:32:36.104Z,67.00
2023-09-06T02:33:10.756Z,67.67
2023-09-06T02:33:45.304Z,67.67
2023-09-06T02:34:17.949Z,66.67
2023-09-06T02:34:50.503Z,66.00
2023-09-06T02:35:23.441Z,66.00
2023-09-06T02:35:56.001Z,64.33
2023-09-06T02:36:28.496Z,63.00
2023-09-06T02:37:01.120Z,63.00
2023-09-06T02:37:34.161Z,63.00
2023-09-06T02:38:06.666Z,63.00
2023-09-06T02:38:39.160Z,63.00
2023-09-06T02:39:11.690Z,63.00
2023-09-06T02:39:44.229Z,63.33
2023-09-06T02:40:19.434Z,64.00
2023-09-06T02:40:53.469Z,64.00
2023-09-06T02:41:25.998Z,64.00
2023-09-06T02:42:00.418Z,65.00
2023-09-06T02:42:32.908Z,67.00
2023-09-06T02:43:06.033Z,68.67
2023-09-06T02:43:38.707Z,69.00
2023-09-06T02:44:11.222Z,69.00
2023-09-06T02:44:44.015Z,69.00
2023-09-06T02:45:16.586Z,69.33
2023-09-06T02:45:51.501Z,70.00
2023-09-06T02:46:32.961Z,71.00
2023-09-06T02:47:10.063Z,75.33
2023-09-06T02:47:51.761Z,93.00
2023-09-06T02:48:24.571Z,107.67
2023-09-06T02:48:59.732Z,126.67
2023-09-06T02:49:33.314Z,133.33
2023-09-06T02:50:07.689Z,114.00
2023-09-06T02:50:41.683Z,99.67
2023-09-06T02:51:17.148Z,96.67
2023-09-06T02:51:49.692Z,93.33
2023-09-06T02:52:29.582Z,88.00
2023-09-06T02:53:04.369Z,83.67
2023-09-06T02:53:37.315Z,79.00
2023-09-06T02:54:10.878Z,76.00
2023-09-06T02:54:43.715Z,76.00
2023-09-06T02:55:16.298Z,77.33
2023-09-06T02:55:55.186Z,78.00
2023-09-06T02:56:27.781Z,78.00
2023-09-06T02:57:00.316Z,79.00
2023-09-06T02:57:33.327Z,79.33
2023-09-06T02:58:06.126Z,81.00
2023-09-06T02:58:38.874Z,82.00
2023-09-06T02:59:16.784Z,82.00
2023-09-06T02:59:49.338Z,83.00
2023-09-06T03:00:24.866Z,83.00
2023-09-06T03:00:59.419Z,82.00
2023-09-06T03:01:32.778Z,84.00
2023-09-06T03:02:06.807Z,85.67
2023-09-06T03:02:39.441Z,85.67
2023-09-06T03:03:17.298Z,85.00
2023-09-06T03:03:54.740Z,85.00
2023-09-06T03:04:27.552Z,85.33
2023-09-06T03:05:05.386Z,87.33
2023-09-06T03:05:44.992Z,91.33
2023-09-06T03:06:19.324Z,92.00
2023-09-06T03:06:51.946Z,90.67
2023-09-06T03:07:24.457Z,87.33
2023-09-06T03:07:56.947Z,86.00
2023-09-06T03:08:30.306Z,85.67
2023-09-06T03:09:07.857Z,86.00
2023-09-06T03:09:40.649Z,86.67
2023-09-06T03:10:13.229Z,87.67
2023-09-06T03:10:45.944Z,88.00
2023-09-06T03:11:18.555Z,97.00
2023-09-06T03:11:52.848Z,123.00
2023-09-06T03:12:25.421Z,141.67
2023-09-06T03:12:59.056Z,148.33
2023-09-06T03:13:31.631Z,146.33
2023-09-06T03:14:05.208Z,141.33
2023-09-06T03:14:37.764Z,133.67
2023-09-06T03:15:12.748Z,136.33
2023-09-06T03:15:45.507Z,132.67
2023-09-06T03:16:18.350Z,126.67
2023-09-06T03:16:54.622Z,124.00
2023-09-06T03:17:27.265Z,123.67
2023-09-06T03:18:00.149Z,127.00
2023-09-06T03:18:32.901Z,138.33
2023-09-06T03:19:11.238Z,139.33
2023-09-06T03:19:44.339Z,137.00
2023-09-06T03:20:35.184Z,132.00
2023-09-06T03:21:08.131Z,129.33
2023-09-06T03:21:40.804Z,128.00
2023-09-06T03:22:13.839Z,131.33
2023-09-06T03:22:52.964Z,139.00
2023-09-06T03:23:26.561Z,142.00
2023-09-06T03:24:00.794Z,143.33
2023-09-06T03:24:34.651Z,147.33
2023-09-06T03:25:07.380Z,157.67
2023-09-06T03:25:41.484Z,171.67
2023-09-06T03:26:14.505Z,222.00
2023-09-06T03:26:47.083Z,278.33
2023-09-06T03:27:21.623Z,327.67
2023-09-06T03:28:01.392Z,367.33
2023-09-06T03:28:34.906Z,393.67
2023-09-06T03:29:11.594Z,408.00
2023-09-06T03:29:51.833Z,416.00
2023-09-06T03:30:25.290Z,395.67
2023-09-06T03:31:01.685Z,406.00
2023-09-06T03:31:35.677Z,419.67
2023-09-06T03:32:09.794Z,424.67
2023-09-06T03:32:43.772Z,414.67
2023-09-06T03:33:16.753Z,398.00
2023-09-06T03:33:49.251Z,403.00
2023-09-06T03:34:23.300Z,414.33
2023-09-06T03:34:56.163Z,414.33
2023-09-06T03:35:28.729Z,392.00
2023-09-06T03:36:01.281Z,388.33
2023-09-06T03:36:36.416Z,398.67
2023-09-06T03:37:12.420Z,400.67
2023-09-06T03:37:45.015Z,357.00
2023-09-06T03:38:19.095Z,340.33
2023-09-06T03:38:51.817Z,340.33
2023-09-06T03:39:30.208Z,350.00
2023-09-06T03:40:02.943Z,391.33
2023-09-06T03:40:39.656Z,408.33
2023-09-06T03:41:12.295Z,417.00
2023-09-06T03:41:47.335Z,407.33
2023-09-06T03:42:20.022Z,404.67
2023-09-06T03:42:56.164Z,398.00
2023-09-06T03:43:50.127Z,380.00
2023-09-06T03:44:22.740Z,365.67
2023-09-06T03:44:55.283Z,364.67
2023-09-06T03:45:28.848Z,364.00
2023-09-06T03:46:23.521Z,380.33
2023-09-06T03:46:58.823Z,394.00
2023-09-06T03:47:31.631Z,383.00
2023-09-06T03:48:06.360Z,384.67
2023-09-06T03:48:39.218Z,390.00
2023-09-06T03:49:14.471Z,383.67
2023-09-06T03:49:47.207Z,397.67
2023-09-06T03:50:22.580Z,414.33
2023-09-06T03:50:57.307Z,412.00
2023-09-06T03:51:29.895Z,416.67
2023-09-06T03:52:06.008Z,422.67
2023-09-06T03:52:40.322Z,420.33
2023-09-06T03:53:14.758Z,421.67
2023-09-06T03:53:48.925Z,425.00
2023-09-06T03:54:21.472Z,419.67
2023-09-06T03:54:54.580Z,427.67
2023-09-06T03:55:27.083Z,431.67
2023-09-06T03:56:01.696Z,430.67
2023-09-06T03:56:39.530Z,428.00
2023-09-06T03:57:14.408Z,425.67
2023-09-06T03:57:48.226Z,422.67
2023-09-06T03:58:20.764Z,418.33
2023-09-06T03:58:55.070Z,418.00
2023-09-06T03:59:27.681Z,418.00
2023-09-06T04:00:00.267Z,417.67
2023-09-06T04:00:32.883Z,416.33
2023-09-06T04:01:05.904Z,415.33
2023-09-06T04:01:38.997Z,414.33
2023-09-06T04:02:15.054Z,412.33
2023-09-06T04:02:49.204Z,410.67
2023-09-06T04:03:24.074Z,410.00
2023-09-06T04:03:57.011Z,410.00
2023-09-06T04:04:30.715Z,409.67
2023-09-06T04:05:03.291Z,409.00
2023-09-06T04:05:35.929Z,409.00
2023-09-06T04:06:08.416Z,409.00
2023-09-06T04:06:44.315Z,407.67
2023-09-06T04:07:16.906Z,401.67
2023-09-06T04:07:49.940Z,401.00
2023-09-06T04:08:26.891Z,401.00
2023-09-06T04:08:59.788Z,401.00
2023-09-06T04:09:38.497Z,401.67
2023-09-06T04:10:17.818Z,402.67
2023-09-06T04:10:50.875Z,403.00
2023-09-06T04:11:24.216Z,403.00
2023-09-06T04:12:00.374Z,404.00
2023-09-06T04:12:32.912Z,403.00
2023-09-06T04:13:09.472Z,401.33
2023-09-06T04:13:43.371Z,400.33
2023-09-06T04:14:15.925Z,401.67
2023-09-06T04:14:48.501Z,406.33
2023-09-06T04:15:25.023Z,413.67
2023-09-06T04:15:57.519Z,418.00
2023-09-06T04:16:32.725Z,420.00
2023-09-06T04:17:08.630Z,421.00
2023-09-06T04:17:42.138Z,424.33
2023-09-06T04:18:14.920Z,429.33
2023-09-06T04:18:47.611Z,432.00
2023-09-06T04:19:20.384Z,430.67
2023-09-06T04:19:52.962Z,429.33
2023-09-06T04:20:33.055Z,429.00
2023-09-06T04:21:09.947Z,429.33
2023-09-06T04:21:42.511Z,427.67
2023-09-06T04:22:16.907Z,426.67
2023-09-06T04:22:49.443Z,424.67
2023-09-06T04:23:21.990Z,423.00
2023-09-06T04:23:54.567Z,423.00
2023-09-06T04:24:27.058Z,422.33
2023-09-06T04:24:59.589Z,422.00
2023-09-06T04:25:34.571Z,421.00
2023-09-06T04:26:07.473Z,419.33
2023-09-06T04:26:40.033Z,412.67
2023-09-06T04:27:13.523Z,412.00
2023-09-06T04:27:47.384Z,406.33
2023-09-06T04:28:22.600Z,378.33
2023-09-06T04:28:55.093Z,367.67
2023-09-06T04:29:27.652Z,386.00
2023-09-06T04:30:00.297Z,393.33
2023-09-06T04:30:33.349Z,394.33
2023-09-06T04:31:06.119Z,395.67
2023-09-06T04:31:42.534Z,396.67
2023-09-06T04:32:18.603Z,398.00
2023-09-06T04:32:52.850Z,399.33
2023-09-06T04:33:25.845Z,400.00
2023-09-06T04:33:59.307Z,401.00
2023-09-06T04:34:31.813Z,401.00
2023-09-06T04:35:05.372Z,401.00
2023-09-06T04:35:40.080Z,400.00
2023-09-06T04:36:12.558Z,400.00
2023-09-06T04:36:45.045Z,399.67
2023-09-06T04:37:19.714Z,398.33
2023-09-06T04:37:52.262Z,399.00
2023-09-06T04:38:25.053Z,399.33
2023-09-06T04:38:57.729Z,401.00
2023-09-06T04:39:31.707Z,405.33
2023-09-06T04:40:05.924Z,412.00
2023-09-06T04:40:39.296Z,417.33
2023-09-06T04:41:11.935Z,420.67
2023-09-06T04:41:44.482Z,422.33
2023-09-06T04:42:17.029Z,423.33
2023-09-06T04:42:49.554Z,424.33
2023-09-06T04:43:23.541Z,426.00
2023-09-06T04:43:56.604Z,431.00
2023-09-06T04:44:29.206Z,435.00
2023-09-06T04:45:02.003Z,435.00
2023-09-06T04:45:34.659Z,434.00
2023-09-06T04:46:07.263Z,433.33
2023-09-06T04:46:39.774Z,431.67
2023-09-06T04:47:15.397Z,430.67
2023-09-06T04:47:47.982Z,429.00
2023-09-06T04:48:20.761Z,424.33
2023-09-06T04:48:53.352Z,401.67
2023-09-06T04:49:26.028Z,400.33
2023-09-06T04:49:59.297Z,391.67
2023-09-06T04:50:32.074Z,369.00
2023-09-06T04:51:05.970Z,321.67
2023-09-06T04:51:39.180Z,289.67
2023-09-06T04:52:11.669Z,264.67
2023-09-06T04:52:46.341Z,233.67
2023-09-06T04:53:19.546Z,220.33
2023-09-06T04:53:52.216Z,226.00
2023-09-06T04:54:24.753Z,208.33
2023-09-06T04:54:58.241Z,186.33
2023-09-06T04:55:35.024Z,181.00
2023-09-06T04:56:08.090Z,193.33
2023-09-06T04:56:41.664Z,175.00
2023-09-06T04:57:14.279Z,150.33
2023-09-06T04:57:50.809Z,126.33
2023-09-06T04:58:23.331Z,113.33
2023-09-06T04:58:57.119Z,111.67
2023-09-06T04:59:29.646Z,115.00
2023-09-06T05:00:02.363Z,115.00
2023-09-06T05:00:40.103Z,115.67
2023-09-06T05:01:12.899Z,122.00
2023-09-06T05:01:45.485Z,122.00
2023-09-06T05:02:18.005Z,110.00
2023-09-06T05:02:53.005Z,105.00
2023-09-06T05:03:25.668Z,104.33
2023-09-06T05:03:58.530Z,102.00
2023-09-06T05:04:31.913Z,102.67
2023-09-06T05:05:05.057Z,129.00
2023-09-06T05:05:38.341Z,162.00
2023-09-06T05:06:10.888Z,165.00
2023-09-06T05:06:43.748Z,158.33
2023-09-06T05:07:16.285Z,151.67
2023-09-06T05:07:48.826Z,144.00
2023-09-06T05:08:22.500Z,136.33
2023-09-06T05:08:55.071Z,130.33
2023-09-06T05:09:27.610Z,145.33
2023-09-06T05:10:00.190Z,149.67
2023-09-06T05:10:33.188Z,142.00
2023-09-06T05:11:07.638Z,139.00
2023-09-06T05:11:40.132Z,141.00
2023-09-06T05:12:12.670Z,132.33
2023-09-06T05:12:46.576Z,128.00
2023-09-06T05:13:19.608Z,126.33
2023-09-06T05:13:53.442Z,130.00
2023-09-06T05:14:26.092Z,127.67
2023-09-06T05:14:58.713Z,119.00
2023-09-06T05:15:31.221Z,115.00
2023-09-06T05:16:03.912Z,111.00
2023-09-06T05:16:36.667Z,105.33
2023-09-06T05:17:09.199Z,108.33
2023-09-06T05:18:15.618Z,103.00
2023-09-06T05:18:50.426Z,113.33
2023-09-06T05:19:28.704Z,120.67
2023-09-06T05:20:34.278Z,123.00
2023-09-06T05:21:07.099Z,121.33
2023-09-06T05:21:39.649Z,191.33
2023-09-06T05:22:12.130Z,217.00
2023-09-06T05:22:44.941Z,203.33
2023-09-06T05:23:18.292Z,209.00
2023-09-06T05:23:50.824Z,222.33
2023-09-06T05:24:23.362Z,230.00
2023-09-06T05:24:55.943Z,229.00
2023-09-06T05:25:28.574Z,215.33
2023-09-06T05:26:01.116Z,205.67
2023-09-06T05:26:36.860Z,201.33
2023-09-06T05:27:09.378Z,187.33
2023-09-06T05:27:41.908Z,180.33
2023-09-06T05:28:16.354Z,170.33
2023-09-06T05:28:50.099Z,153.67
2023-09-06T05:29:22.735Z,143.00
2023-09-06T05:29:57.200Z,135.33
2023-09-06T05:30:30.043Z,132.67
2023-09-06T05:31:03.168Z,135.67
2023-09-06T05:31:35.732Z,142.67
2023-09-06T05:32:08.856Z,146.67
2023-09-06T05:32:41.722Z,148.33
2023-09-06T05:33:15.442Z,155.33
2023-09-06T05:33:49.096Z,160.00
2023-09-06T05:34:21.662Z,162.00
2023-09-06T05:34:54.186Z,161.33
2023-09-06T05:35:27.388Z,163.33
2023-09-06T05:35:59.885Z,165.67
2023-09-06T05:36:32.398Z,166.33
2023-09-06T05:37:05.152Z,166.67
2023-09-06T05:37:39.207Z,162.33
2023-09-06T05:38:11.831Z,143.00
2023-09-06T05:38:44.359Z,129.67
2023-09-06T05:39:16.861Z,129.00
2023-09-06T05:39:49.396Z,132.67
2023-09-06T05:40:24.416Z,138.67
2023-09-06T05:40:58.916Z,142.00
2023-09-06T05:41:32.922Z,145.33
2023-09-06T05:42:05.576Z,146.67
2023-09-06T05:42:38.346Z,147.00
2023-09-06T05:43:10.976Z,147.33
2023-09-06T05:43:43.558Z,155.33
2023-09-06T05:44:16.131Z,164.33
2023-09-06T05:44:48.660Z,173.00
2023-09-06T05:45:22.658Z,175.67
2023-09-06T05:45:55.207Z,200.67
2023-09-06T05:46:33.829Z,213.33
2023-09-06T05:47:06.745Z,188.67
2023-09-06T05:47:39.739Z,181.67
2023-09-06T05:48:12.685Z,198.67
2023-09-06T05:48:45.486Z,194.33
2023-09-06T05:49:18.205Z,194.33
2023-09-06T05:49:57.081Z,189.67
2023-09-06T05:50:29.716Z,171.00
2023-09-06T05:51:02.314Z,138.00
2023-09-06T05:51:35.068Z,141.33
2023-09-06T05:52:07.665Z,241.67
2023-09-06T05:52:40.152Z,323.00
2023-09-06T05:53:12.790Z,330.33
2023-09-06T05:53:45.374Z,307.33
2023-09-06T05:54:17.930Z,267.67
2023-09-06T05:54:51.421Z,223.33
2023-09-06T05:55:25.327Z,193.67
2023-09-06T05:55:58.785Z,157.33
2023-09-06T05:56:31.352Z,138.33
2023-09-06T05:57:05.763Z,119.67
2023-09-06T05:57:39.277Z,109.00
2023-09-06T05:58:11.781Z,104.00
2023-09-06T05:58:44.347Z,101.67
2023-09-06T05:59:17.775Z,135.33
2023-09-06T05:59:50.395Z,156.33
2023-09-06T06:00:23.838Z,150.67
2023-09-06T06:00:57.872Z,135.33
2023-09-06T06:01:30.443Z,130.00
2023-09-06T06:02:03.911Z,138.00
2023-09-06T06:02:36.557Z,134.67
2023-09-06T06:03:09.320Z,120.33
2023-09-06T06:03:41.899Z,111.67
2023-09-06T06:04:15.182Z,105.33
2023-09-06T06:04:47.832Z,128.33
2023-09-06T06:05:20.401Z,136.33
2023-09-06T06:05:52.968Z,135.67
2023-09-06T06:06:25.488Z,138.00
2023-09-06T06:06:58.039Z,138.33
2023-09-06T06:07:31.183Z,139.00
2023-09-06T06:08:04.020Z,202.33
2023-09-06T06:08:36.645Z,257.33
2023-09-06T06:09:14.759Z,252.00
2023-09-06T06:09:47.342Z,197.00
2023-09-06T06:10:19.873Z,183.33
2023-09-06T06:10:53.470Z,181.67
2023-09-06T06:11:28.394Z,175.33
2023-09-06T06:12:02.118Z,149.33
2023-09-06T06:12:35.294Z,142.67
2023-09-06T06:13:09.701Z,154.67
2023-09-06T06:13:53.203Z,173.67
2023-09-06T06:14:34.113Z,200.67
2023-09-06T06:15:09.710Z,191.00
2023-09-06T06:15:42.444Z,183.67
2023-09-06T06:16:16.137Z,184.00
2023-09-06T06:16:48.800Z,189.00
2023-09-06T06:17:21.421Z,185.33
2023-09-06T06:17:54.046Z,191.67
2023-09-06T06:18:27.792Z,201.67
2023-09-06T06:19:01.068Z,192.33
2023-09-06T06:19:34.378Z,190.33
2023-09-06T06:20:08.907Z,191.00
2023-09-06T06:20:44.405Z,192.33
2023-09-06T06:21:18.955Z,193.00
2023-09-06T06:21:52.027Z,191.33
2023-09-06T06:22:24.662Z,193.67
2023-09-06T06:22:57.225Z,196.67
2023-09-06T06:23:31.127Z,196.33
2023-09-06T06:24:04.139Z,200.00
2023-09-06T06:24:36.864Z,196.33
2023-09-06T06:25:11.800Z,200.67
2023-09-06T06:25:44.492Z,205.67
2023-09-06T06:26:20.536Z,210.67
2023-09-06T06:26:53.220Z,203.00
2023-09-06T06:27:26.286Z,201.67
2023-09-06T06:27:58.998Z,200.00
2023-09-06T06:28:32.016Z,191.00
2023-09-06T06:29:07.668Z,172.33
2023-09-06T06:29:40.424Z,175.67
2023-09-06T06:30:13.300Z,177.33
2023-09-06T06:30:47.920Z,196.00
2023-09-06T06:31:23.434Z,234.00
2023-09-06T06:31:57.917Z,225.67
2023-09-06T06:32:30.567Z,224.33
2023-09-06T06:33:06.613Z,214.67
2023-09-06T06:33:40.805Z,207.00
2023-09-06T06:34:15.302Z,199.33
2023-09-06T06:34:51.106Z,196.00
2023-09-06T06:35:24.122Z,186.67
2023-09-06T06:35:56.715Z,173.33
2023-09-06T06:36:32.412Z,170.67
2023-09-06T06:37:05.348Z,172.33
2023-09-06T06:37:37.878Z,169.00
2023-09-06T06:38:10.452Z,172.00
2023-09-06T06:38:47.424Z,174.67
2023-09-06T06:39:19.994Z,171.67
2023-09-06T06:39:52.487Z,164.00
2023-09-06T06:40:25.601Z,162.67
2023-09-06T06:40:58.553Z,162.67
2023-09-06T06:41:32.001Z,167.33
2023-09-06T06:42:04.654Z,169.00
2023-09-06T06:42:37.181Z,167.33
2023-09-06T06:43:09.683Z,165.00
2023-09-06T06:43:42.225Z,168.67
2023-09-06T06:44:14.909Z,170.00
2023-09-06T06:44:48.662Z,170.33
2023-09-06T06:45:21.243Z,170.00
2023-09-06T06:45:56.163Z,171.00
2023-09-06T06:46:29.973Z,173.33
2023-09-06T06:47:02.547Z,176.67
2023-09-06T06:47:35.532Z,177.00
2023-09-06T06:48:08.195Z,177.67
2023-09-06T06:48:40.781Z,183.67
2023-09-06T06:49:13.456Z,189.00
2023-09-06T06:49:45.986Z,187.33
2023-09-06T06:50:19.358Z,185.00
2023-09-06T06:50:53.116Z,176.67
2023-09-06T06:51:33.016Z,172.00
2023-09-06T06:52:05.816Z,174.00
2023-09-06T06:52:38.956Z,171.00
2023-09-06T06:53:11.550Z,159.00
2023-09-06T06:53:47.503Z,149.00
2023-09-06T06:54:20.818Z,148.00
2023-09-06T06:54:53.351Z,155.33
2023-09-06T06:55:25.874Z,158.67
2023-09-06T06:55:58.804Z,162.33
2023-09-06T06:56:31.336Z,168.33
2023-09-06T06:57:04.127Z,168.67
2023-09-06T06:57:37.487Z,164.00
2023-09-06T06:58:09.984Z,157.33
2023-09-06T06:58:42.551Z,151.67
2023-09-06T06:59:15.206Z,153.33
2023-09-06T06:59:47.854Z,151.33
2023-09-06T07:00:20.389Z,152.00
2023-09-06T07:00:52.951Z,151.67
2023-09-06T07:01:26.154Z,148.67
2023-09-06T07:01:58.836Z,151.00
2023-09-06T07:02:31.856Z,152.67
2023-09-06T07:03:10.351Z,153.00
2023-09-06T07:03:42.969Z,154.00
2023-09-06T07:04:15.602Z,154.33
2023-09-06T07:04:48.694Z,155.00
2023-09-06T07:05:21.330Z,156.67
2023-09-06T07:05:55.131Z,171.67
2023-09-06T07:06:30.348Z,201.33
2023-09-06T07:07:03.029Z,212.67
2023-09-06T07:07:35.570Z,220.33